Pagrindinis puslapis
METAR-TAF:

METAR-TAF

Oro uostai :

Akrotiris, Kipras

platuma: 34-35N, ilguma: 032-59E, Aukštis: 23 m

Dabartinis oras

Ataskaita buvo paskelbta 14 minutes, ne 20:22 UTC
Vėjas 5 kt iš Šiaurės
Temperatūra 11°C
Drėgmė 87%
Slėgis 1020 hPa
Matomumas 10 km arba daugiau
nėra debesų žemiau 1500 m ir nėra kamuolinių lietaus debesų

METAR: LCRA 152022Z 35005KT CAVOK 11/09 Q1020 NOSIG

Laikas: 22:36 (20:36 UTC)

Prognozė

Ataskaita buvo paskelbta 1 valandą ir 13 minutes, ne 19:23 UTC
Prognozė galioja nuo 15 metu 21 UTC su 16 metu 15 UTC
Vėjas 5 kt iš Šiaurės
Matomumas 10 km arba daugiau
Mažai debesys ne aukštis 5000 ft

TAF: LCRA 151923Z 1521/1615 35005KT 9999 FEW050

Orai ataskaitas ir orų prognozės (METAR, TAF).

turimą stotys yra geltonos ir raudonos taškus žemėlapyje.

Perkelti pele per norėdami pamatyti stoties vardą.

Tada spustelėkite, norėdami matyti oro stebėjimo ir prognozės.

Norėdami pakeisti žemėlapį: spustelėkite ant žalios mygtukų su juodo kryžiaus žemyn,; žalią mygtuką su brūkšneliu, jei norite nutolinti; arba žalių rodyklių gretimoms žemėlapius.


METAR-TAF: